Terminal Aerodrome Forecast
Issued by NWS

Home | Current Version | Previous Version | Text Only | Print | Product List | Glossary On
Versions: 1 2 3 4 5 6 7 8 9 10 11 12 13 14 15 16 17 18 19 20 21 22 23 24 25 26 27 28 29
000
FTUS44 KLIX 030500
TAFHDC
TAF
KHDC 030528Z 0306/0406 12006KT P6SM SCT005 OVC090
     FM031400 00000KT P6SM SCT040 BKN110
      TEMPO 0318/0322 16020G30KT 1SM +TSRA BKN035CB
     FM040000 VRB03KT P6SM SCT150=

USA.gov is the U.S. government's official web portal to all federal, state and local government web resources and services.